createdAt,value
2022-12-31T00:01:03.606Z,99721.34
2022-12-31T00:03:30.109Z,99729.28
2022-12-31T00:05:57.961Z,99723.44
2022-12-31T00:08:24.364Z,99715.88
2022-12-31T00:10:50.829Z,99714.97
2022-12-31T00:13:17.284Z,99713.53
2022-12-31T00:15:44.186Z,99709.13
2022-12-31T00:18:10.801Z,99707.84
2022-12-31T00:20:39.289Z,99707.47
2022-12-31T00:23:07.967Z,99719.88
2022-12-31T00:25:34.908Z,99722.81
2022-12-31T00:28:01.367Z,99726.72
2022-12-31T00:30:27.741Z,99718.22
2022-12-31T00:32:54.397Z,99717.59
2022-12-31T00:35:20.781Z,99719.63
2022-12-31T00:37:47.099Z,99716.53
2022-12-31T00:40:14.887Z,99728.81
2022-12-31T00:42:41.281Z,99718.75
2022-12-31T00:45:08.719Z,99718.03
2022-12-31T00:47:35.350Z,99726.47
2022-12-31T00:50:01.767Z,99726.69
2022-12-31T00:52:28.133Z,99718.44
2022-12-31T00:54:54.497Z,99728.91
2022-12-31T00:57:22.217Z,99726.44
2022-12-31T00:59:48.562Z,99723.25
2022-12-31T01:02:15.048Z,99727.44
2022-12-31T01:04:41.579Z,99716.13
2022-12-31T01:07:07.987Z,99721.44
2022-12-31T01:09:34.328Z,99723.56
2022-12-31T01:12:00.690Z,99729.97
2022-12-31T01:14:28.449Z,99725.22
2022-12-31T01:16:54.820Z,99737.13
2022-12-31T01:19:23.918Z,99741.91
2022-12-31T01:21:50.944Z,99743.38
2022-12-31T01:24:18.609Z,99754.00
2022-12-31T01:26:45.302Z,99748.22
2022-12-31T01:29:12.392Z,99759.84
2022-12-31T01:31:40.521Z,99741.47
2022-12-31T01:34:07.107Z,99744.25
2022-12-31T01:36:34.548Z,99743.69
2022-12-31T01:39:03.320Z,99741.06
2022-12-31T01:41:31.635Z,99744.72
2022-12-31T01:44:00.116Z,99755.75
2022-12-31T01:46:33.112Z,99737.03
2022-12-31T01:49:09.219Z,99745.75
2022-12-31T01:51:37.212Z,99745.50
2022-12-31T01:54:08.087Z,99741.47
2022-12-31T01:56:36.021Z,99749.66
2022-12-31T01:59:06.472Z,99753.72
2022-12-31T02:01:33.490Z,99754.56
2022-12-31T02:04:06.787Z,99742.81
2022-12-31T02:06:38.728Z,99746.88
2022-12-31T02:09:05.205Z,99735.63
2022-12-31T02:11:33.372Z,99725.28
2022-12-31T02:14:04.199Z,99718.44
2022-12-31T02:16:40.508Z,99723.22
2022-12-31T02:19:31.848Z,99717.78
2022-12-31T02:22:03.571Z,99720.09
2022-12-31T02:24:48.203Z,99711.75
2022-12-31T02:27:26.584Z,99710.13
2022-12-31T02:30:08.958Z,99709.81
2022-12-31T02:32:47.168Z,99715.47
2022-12-31T02:35:20.436Z,99693.50
2022-12-31T02:37:50.756Z,99694.19
2022-12-31T02:40:21.765Z,99702.00
2022-12-31T02:42:54.881Z,99690.78
2022-12-31T02:45:26.805Z,99687.84
2022-12-31T02:48:05.142Z,99694.94
2022-12-31T02:50:41.842Z,99700.31
2022-12-31T02:53:24.925Z,99705.19
2022-12-31T02:55:59.893Z,99703.59
2022-12-31T02:58:33.517Z,99693.59
2022-12-31T03:01:01.689Z,99680.91
2022-12-31T03:03:28.696Z,99684.69
2022-12-31T03:05:56.830Z,99679.91
2022-12-31T03:08:25.187Z,99679.75
2022-12-31T03:10:52.057Z,99676.28
2022-12-31T03:13:18.612Z,99668.13
2022-12-31T03:15:44.988Z,99668.56
2022-12-31T03:18:15.096Z,99670.59
2022-12-31T03:20:43.994Z,99675.53
2022-12-31T03:23:12.957Z,99666.09
2022-12-31T03:25:39.355Z,99654.38
2022-12-31T03:28:08.252Z,99669.94
2022-12-31T03:30:36.165Z,99662.47
2022-12-31T03:33:02.988Z,99650.66
2022-12-31T03:35:33.313Z,99657.63
2022-12-31T03:38:00.114Z,99649.41
2022-12-31T03:40:29.821Z,99651.97
2022-12-31T03:42:56.261Z,99653.84
2022-12-31T03:45:24.036Z,99630.56
2022-12-31T03:47:50.685Z,99630.25
2022-12-31T03:50:18.527Z,99630.44
2022-12-31T03:52:46.758Z,99621.81
2022-12-31T03:55:13.676Z,99615.81
2022-12-31T03:57:40.690Z,99616.16
2022-12-31T04:00:10.687Z,99616.91
2022-12-31T04:02:37.417Z,99598.81
2022-12-31T04:05:04.967Z,99606.72
2022-12-31T04:07:31.494Z,99601.72
2022-12-31T04:09:59.273Z,99589.06
2022-12-31T04:12:25.674Z,99604.69
2022-12-31T04:14:52.048Z,99592.78
2022-12-31T04:17:18.440Z,99564.06
2022-12-31T04:19:44.857Z,99555.69
2022-12-31T04:22:11.302Z,99586.78
2022-12-31T04:24:37.659Z,99609.72
2022-12-31T04:27:07.868Z,99623.19
2022-12-31T04:29:35.285Z,99621.19
2022-12-31T04:32:01.882Z,99625.66
2022-12-31T04:34:28.304Z,99624.81
2022-12-31T04:36:54.825Z,99622.00
2022-12-31T04:39:21.194Z,99620.78
2022-12-31T04:41:47.691Z,99621.53
2022-12-31T04:44:16.273Z,99639.53
2022-12-31T04:46:42.855Z,99642.44
2022-12-31T04:49:09.258Z,99638.53
2022-12-31T04:51:36.098Z,99651.47
2022-12-31T04:54:02.724Z,99655.16
2022-12-31T04:56:29.826Z,99678.81
2022-12-31T04:58:56.482Z,99685.16
2022-12-31T05:01:24.723Z,99688.91
2022-12-31T05:03:51.284Z,99689.63
2022-12-31T05:06:19.409Z,99680.00
2022-12-31T05:08:46.783Z,99680.25
2022-12-31T05:11:13.567Z,99676.81
2022-12-31T05:13:40.083Z,99659.09
2022-12-31T05:16:07.151Z,99660.63
2022-12-31T05:18:35.799Z,99655.78
2022-12-31T05:21:02.471Z,99650.81
2022-12-31T05:23:29.263Z,99657.53
2022-12-31T05:25:55.624Z,99650.56
2022-12-31T05:28:22.053Z,99660.66
2022-12-31T05:30:50.104Z,99675.84
2022-12-31T05:33:16.947Z,99692.94
2022-12-31T05:35:44.852Z,99702.03
2022-12-31T05:38:11.582Z,99707.63
2022-12-31T05:40:37.940Z,99711.44
2022-12-31T05:43:04.495Z,99706.59
2022-12-31T05:45:31.306Z,99696.34
2022-12-31T05:47:57.979Z,99725.50
2022-12-31T05:50:24.633Z,99710.97
2022-12-31T05:52:52.328Z,99726.44
2022-12-31T05:55:18.865Z,99714.72
2022-12-31T05:57:45.278Z,99735.44
2022-12-31T06:00:12.990Z,99728.22
2022-12-31T06:02:39.422Z,99718.34
2022-12-31T06:05:06.648Z,99725.78
2022-12-31T06:07:33.397Z,99711.03
2022-12-31T06:10:01.114Z,99710.00
2022-12-31T06:12:27.481Z,99713.91
2022-12-31T06:14:53.846Z,99700.28
2022-12-31T06:17:20.238Z,99707.34
2022-12-31T06:19:46.866Z,99703.53
2022-12-31T06:22:13.431Z,99705.50
2022-12-31T06:24:39.793Z,99697.56
2022-12-31T06:27:07.525Z,99700.59
2022-12-31T06:29:33.891Z,99707.63
2022-12-31T06:32:00.384Z,99719.13
2022-12-31T06:34:26.811Z,99727.19
2022-12-31T06:36:53.310Z,99728.19
2022-12-31T06:39:19.721Z,99721.94
2022-12-31T06:41:46.086Z,99717.00
2022-12-31T06:44:13.805Z,99714.44
2022-12-31T06:46:40.283Z,99715.56
2022-12-31T06:49:06.738Z,99712.25
2022-12-31T06:51:33.136Z,99719.72
2022-12-31T06:53:59.525Z,99717.34
2022-12-31T06:56:33.513Z,99726.59
2022-12-31T06:59:01.578Z,99732.94
2022-12-31T07:01:39.316Z,99755.19
2022-12-31T07:04:20.293Z,99732.97
2022-12-31T07:06:51.768Z,99715.44
2022-12-31T07:09:26.874Z,99751.97
2022-12-31T07:12:01.256Z,99730.13
2022-12-31T07:14:35.849Z,99712.00
2022-12-31T07:17:16.951Z,99762.50
2022-12-31T07:19:57.455Z,99704.16
2022-12-31T07:22:24.924Z,99774.38
2022-12-31T07:24:52.002Z,99734.28
2022-12-31T07:27:35.961Z,99716.81
2022-12-31T07:30:04.469Z,99728.94
2022-12-31T07:32:56.718Z,99747.16
2022-12-31T07:35:35.208Z,99761.63
2022-12-31T07:38:12.402Z,99743.91
2022-12-31T07:40:53.488Z,99757.63
2022-12-31T07:43:31.431Z,99770.63
2022-12-31T07:46:07.083Z,99774.34
2022-12-31T07:48:35.387Z,99782.50
2022-12-31T07:51:02.233Z,99779.63
2022-12-31T07:53:29.085Z,99789.72
2022-12-31T07:55:57.732Z,99794.69
2022-12-31T07:58:31.835Z,99798.25
2022-12-31T08:00:59.826Z,99793.06
2022-12-31T08:03:43.411Z,99800.63
2022-12-31T08:06:14.700Z,99792.50
2022-12-31T08:08:51.564Z,99800.94
2022-12-31T08:11:27.840Z,99796.22
2022-12-31T08:13:54.931Z,99803.31
2022-12-31T08:16:21.774Z,99814.16
2022-12-31T08:18:50.378Z,99818.63
2022-12-31T08:21:34.495Z,99825.56
2022-12-31T08:24:10.725Z,99826.66
2022-12-31T08:26:41.324Z,99822.97
2022-12-31T08:29:23.300Z,99816.03
2022-12-31T08:31:59.469Z,99810.88
2022-12-31T08:34:35.129Z,99815.09
2022-12-31T08:37:10.580Z,99829.81
2022-12-31T08:39:57.976Z,99839.69
2022-12-31T08:42:32.227Z,99822.28
2022-12-31T08:45:07.850Z,99817.00
2022-12-31T08:47:45.473Z,99821.41
2022-12-31T08:50:18.307Z,99813.38
2022-12-31T08:52:45.695Z,99806.22
2022-12-31T08:55:17.513Z,99811.63
2022-12-31T08:57:53.554Z,99809.00
2022-12-31T09:00:21.702Z,99809.19
2022-12-31T09:03:05.920Z,99819.72
2022-12-31T09:05:47.020Z,99812.88
2022-12-31T09:08:21.351Z,99816.38
2022-12-31T09:10:57.301Z,99811.22
2022-12-31T09:13:31.992Z,99808.47
2022-12-31T09:16:07.818Z,99806.25
2022-12-31T09:18:39.593Z,99808.91
2022-12-31T09:21:09.210Z,99812.41
2022-12-31T09:23:36.215Z,99803.78
2022-12-31T09:26:10.613Z,99800.22
2022-12-31T09:28:47.438Z,99800.47
2022-12-31T09:31:17.289Z,99801.03
2022-12-31T09:33:50.173Z,99809.09
2022-12-31T09:36:26.267Z,99805.34
2022-12-31T09:38:57.057Z,99794.81
2022-12-31T09:41:47.930Z,99791.72
2022-12-31T09:44:43.813Z,99784.22
2022-12-31T09:47:31.911Z,99784.69
2022-12-31T09:50:22.737Z,99778.66
2022-12-31T09:53:08.011Z,99782.97
2022-12-31T09:55:39.797Z,99795.38
2022-12-31T09:58:21.418Z,99788.19
2022-12-31T10:00:53.022Z,99785.31
2022-12-31T10:03:33.917Z,99787.38
2022-12-31T10:06:15.911Z,99769.41
2022-12-31T10:08:58.098Z,99777.00
2022-12-31T10:11:33.598Z,99772.69
2022-12-31T10:14:18.730Z,99778.97
2022-12-31T10:16:59.375Z,99772.81
2022-12-31T10:19:50.224Z,99765.34
2022-12-31T10:22:38.040Z,99766.75
2022-12-31T10:25:38.559Z,99758.84
2022-12-31T10:28:14.716Z,99747.47
2022-12-31T10:30:48.990Z,99752.03
2022-12-31T10:33:16.724Z,99755.91
2022-12-31T10:35:51.222Z,99753.13
2022-12-31T10:38:26.505Z,99756.19
2022-12-31T10:41:31.279Z,99764.47
2022-12-31T10:44:43.281Z,99759.25
2022-12-31T10:47:31.722Z,99765.28
2022-12-31T10:50:22.075Z,99769.31
2022-12-31T10:53:11.819Z,99754.78
2022-12-31T10:56:16.937Z,99761.69
2022-12-31T10:59:08.140Z,99768.81
2022-12-31T11:01:47.237Z,99773.31
2022-12-31T11:04:47.584Z,99772.75
2022-12-31T11:07:34.757Z,99766.47
2022-12-31T11:10:20.085Z,99796.00
2022-12-31T11:13:22.423Z,99788.81
2022-12-31T11:16:06.096Z,99799.75
2022-12-31T11:18:43.208Z,99800.97
2022-12-31T11:21:27.788Z,99806.03
2022-12-31T11:24:04.434Z,99813.72
2022-12-31T11:26:46.142Z,99873.19
2022-12-31T11:29:30.803Z,99918.88
2022-12-31T11:32:26.355Z,99922.13
2022-12-31T11:35:12.220Z,99918.03
2022-12-31T11:37:45.138Z,99890.56
2022-12-31T11:40:35.670Z,99916.00
2022-12-31T11:43:11.120Z,99920.75
2022-12-31T11:45:59.008Z,99921.13
2022-12-31T11:48:31.332Z,99912.91
2022-12-31T11:51:15.879Z,99891.19
2022-12-31T11:54:08.655Z,99890.16
2022-12-31T11:56:40.198Z,99894.69
2022-12-31T11:59:18.595Z,99892.69
2022-12-31T12:01:55.037Z,99882.69
2022-12-31T12:04:21.567Z,99874.69
2022-12-31T12:06:50.170Z,99881.06
2022-12-31T12:09:28.327Z,99880.63
2022-12-31T12:11:59.746Z,99878.66
2022-12-31T12:14:32.044Z,99891.13
2022-12-31T12:17:04.852Z,99884.22
2022-12-31T12:19:33.854Z,99872.50
2022-12-31T12:22:10.061Z,99874.19
2022-12-31T12:24:36.733Z,99876.28
2022-12-31T12:27:03.266Z,99871.03
2022-12-31T12:29:32.691Z,99886.00
2022-12-31T12:32:00.853Z,99887.19
2022-12-31T12:34:29.407Z,99889.19
2022-12-31T12:36:56.063Z,99889.38
2022-12-31T12:39:25.374Z,99895.34
2022-12-31T12:42:03.583Z,99891.22
2022-12-31T12:44:30.954Z,99890.34
2022-12-31T12:46:58.238Z,99894.44
2022-12-31T12:49:27.760Z,99886.41
2022-12-31T12:52:21.379Z,99880.06
2022-12-31T12:55:04.767Z,99880.34
2022-12-31T12:57:40.180Z,99887.66
2022-12-31T13:00:17.322Z,99889.69
2022-12-31T13:03:01.400Z,99890.56
2022-12-31T13:05:44.504Z,99882.41
2022-12-31T13:08:26.737Z,99880.72
2022-12-31T13:11:10.236Z,99900.22
2022-12-31T13:13:42.146Z,99901.38
2022-12-31T13:16:16.840Z,99895.69
2022-12-31T13:18:54.841Z,99900.28
2022-12-31T13:21:32.280Z,99902.56
2022-12-31T13:24:05.196Z,99897.44
2022-12-31T13:26:39.130Z,99901.75
2022-12-31T13:29:11.224Z,99893.00
2022-12-31T13:31:40.147Z,99887.50
2022-12-31T13:34:13.313Z,99888.53
2022-12-31T13:36:43.131Z,99889.75
2022-12-31T13:39:16.050Z,99895.34
2022-12-31T13:41:50.038Z,99893.47
2022-12-31T13:44:23.633Z,99890.50
2022-12-31T13:46:55.909Z,99889.25
2022-12-31T13:49:27.000Z,99881.28
2022-12-31T13:51:57.763Z,99881.03
2022-12-31T13:54:34.505Z,99883.63
2022-12-31T13:57:05.481Z,99882.44
2022-12-31T13:59:38.616Z,99884.06
2022-12-31T14:02:25.285Z,99894.38
2022-12-31T14:04:56.424Z,99895.38
2022-12-31T14:07:35.379Z,99887.69
2022-12-31T14:10:12.319Z,99902.50
2022-12-31T14:12:49.665Z,99899.13
2022-12-31T14:15:23.088Z,99907.69
2022-12-31T14:17:55.531Z,99903.81
2022-12-31T14:20:31.028Z,99901.47
2022-12-31T14:23:07.190Z,99899.63
2022-12-31T14:25:39.362Z,99895.47
2022-12-31T14:28:15.710Z,99909.31
2022-12-31T14:30:44.448Z,99910.50
2022-12-31T14:33:27.750Z,99910.81
2022-12-31T14:36:10.399Z,99909.66
2022-12-31T14:38:57.238Z,99913.81
2022-12-31T14:41:35.710Z,99899.03
2022-12-31T14:44:17.894Z,99922.19
2022-12-31T14:46:59.208Z,99915.50
2022-12-31T14:49:39.652Z,99920.16
2022-12-31T14:52:20.909Z,99948.44
2022-12-31T14:54:58.111Z,99940.34
2022-12-31T14:57:26.590Z,99946.38
2022-12-31T14:59:56.884Z,99958.59
2022-12-31T15:02:26.414Z,99980.47
2022-12-31T15:05:05.229Z,99973.41
2022-12-31T15:07:41.837Z,99987.47
2022-12-31T15:10:16.417Z,99973.38
2022-12-31T15:13:04.943Z,99997.72
2022-12-31T15:16:00.100Z,99983.78
2022-12-31T15:18:36.537Z,99979.13
2022-12-31T15:21:22.904Z,99986.72
2022-12-31T15:23:49.296Z,99979.44
2022-12-31T15:26:22.771Z,99989.16
2022-12-31T15:28:59.334Z,99972.59
2022-12-31T15:31:27.701Z,99982.72
2022-12-31T15:33:57.614Z,99991.00
2022-12-31T15:36:26.724Z,99990.72
2022-12-31T15:39:05.933Z,100007.44
2022-12-31T15:41:37.994Z,99999.84
2022-12-31T15:44:12.144Z,99999.59
2022-12-31T15:46:42.512Z,100002.41
2022-12-31T15:49:15.845Z,99991.88
2022-12-31T15:51:44.547Z,99983.53
2022-12-31T15:54:21.920Z,99993.56
2022-12-31T15:56:48.948Z,99977.03
2022-12-31T15:59:18.347Z,99973.75
2022-12-31T16:01:47.385Z,99967.00
2022-12-31T16:04:19.395Z,99973.59
2022-12-31T16:06:50.599Z,99982.22
2022-12-31T16:09:21.555Z,99984.53
2022-12-31T16:11:48.597Z,99983.53
2022-12-31T16:14:20.221Z,99994.91
2022-12-31T16:16:54.677Z,99989.38
2022-12-31T16:19:30.636Z,99990.16
2022-12-31T16:22:00.505Z,99997.13
2022-12-31T16:24:29.643Z,99992.09
2022-12-31T16:26:59.669Z,100012.66
2022-12-31T16:29:26.349Z,100009.78
2022-12-31T16:31:54.505Z,100010.91
2022-12-31T16:34:23.422Z,99996.59
2022-12-31T16:37:00.672Z,100005.81
2022-12-31T16:39:29.990Z,100011.03
2022-12-31T16:42:08.731Z,100010.56
2022-12-31T16:44:35.238Z,100005.69
2022-12-31T16:47:03.847Z,100024.06
2022-12-31T16:49:33.189Z,100029.81
2022-12-31T16:52:04.452Z,100035.16
2022-12-31T16:54:35.344Z,100022.66
2022-12-31T16:57:02.373Z,100030.44
2022-12-31T16:59:35.198Z,100033.09
2022-12-31T17:02:11.527Z,100027.00
2022-12-31T17:04:45.095Z,100026.63
2022-12-31T17:07:36.983Z,100017.69
2022-12-31T17:10:12.938Z,100021.50
2022-12-31T17:13:24.898Z,100022.22
2022-12-31T17:15:40.016Z,100024.13
2022-12-31T17:18:14.775Z,100034.13
2022-12-31T17:20:41.147Z,100014.78
2022-12-31T17:23:09.072Z,100020.72
2022-12-31T17:25:37.825Z,100025.78
2022-12-31T17:28:07.035Z,100011.63
2022-12-31T17:30:39.134Z,100012.41
2022-12-31T17:33:28.194Z,100011.75
2022-12-31T17:35:55.911Z,100008.72
2022-12-31T17:38:31.124Z,100017.34
2022-12-31T17:41:09.281Z,100023.88
2022-12-31T17:43:37.695Z,100018.03
2022-12-31T17:46:10.879Z,100023.38
2022-12-31T17:48:38.844Z,100030.63
2022-12-31T17:51:05.686Z,100024.91
2022-12-31T17:53:32.386Z,100013.97
2022-12-31T17:56:02.388Z,100011.63
2022-12-31T17:58:31.455Z,100007.75
2022-12-31T18:00:59.228Z,100005.69
2022-12-31T18:03:25.822Z,99996.56
2022-12-31T18:05:53.855Z,99989.25
2022-12-31T18:08:20.253Z,99987.50
2022-12-31T18:10:47.175Z,99975.28
2022-12-31T18:13:16.400Z,99984.72
2022-12-31T18:15:43.135Z,99981.84
2022-12-31T18:18:22.530Z,99982.94
2022-12-31T18:20:54.543Z,99979.78
2022-12-31T18:23:23.595Z,99978.53
2022-12-31T18:25:49.952Z,99972.28
2022-12-31T18:28:16.405Z,99974.81
2022-12-31T18:30:44.225Z,99970.59
2022-12-31T18:33:12.259Z,99965.75
2022-12-31T18:38:27.090Z,99962.56
2022-12-31T18:40:56.252Z,99959.97
2022-12-31T18:43:23.376Z,99974.50
2022-12-31T18:45:50.846Z,99963.09
2022-12-31T18:48:18.253Z,99969.34
2022-12-31T18:50:45.634Z,99966.19
2022-12-31T18:53:16.247Z,99957.22
2022-12-31T18:55:47.202Z,99959.75
2022-12-31T18:58:13.661Z,99960.56
2022-12-31T19:00:40.183Z,99948.19
2022-12-31T19:03:06.682Z,99959.66
2022-12-31T19:05:36.317Z,99967.41
2022-12-31T19:08:02.672Z,99970.00
2022-12-31T19:10:29.134Z,99967.44
2022-12-31T19:12:56.930Z,99971.59
2022-12-31T19:15:26.658Z,99973.75
2022-12-31T19:17:53.084Z,99952.56
2022-12-31T19:20:19.752Z,99950.47
2022-12-31T19:22:46.160Z,99944.88
2022-12-31T19:25:18.952Z,99950.41
2022-12-31T19:27:45.376Z,99953.47
2022-12-31T19:30:17.463Z,99973.97
2022-12-31T19:32:43.884Z,99960.47
2022-12-31T19:35:12.028Z,99967.00
2022-12-31T19:37:38.614Z,99963.50
2022-12-31T19:40:06.106Z,99972.00
2022-12-31T19:42:32.492Z,99984.59
2022-12-31T19:44:58.859Z,99967.84
2022-12-31T19:47:26.557Z,99974.34
2022-12-31T19:49:52.938Z,99991.72
2022-12-31T19:52:19.297Z,99990.72
2022-12-31T19:54:45.878Z,99982.34
2022-12-31T19:57:12.336Z,99975.53
2022-12-31T19:59:38.680Z,99988.38
2022-12-31T20:02:05.314Z,99989.47
2022-12-31T20:04:33.108Z,99986.97
2022-12-31T20:06:59.454Z,99994.97
2022-12-31T20:09:25.877Z,100006.25
2022-12-31T20:11:52.237Z,99995.78
2022-12-31T20:14:18.577Z,99992.47
2022-12-31T20:16:44.981Z,99978.41
2022-12-31T20:19:11.414Z,100003.91
2022-12-31T20:21:39.135Z,99995.91
2022-12-31T20:24:06.051Z,99995.47
2022-12-31T20:26:32.499Z,100006.78
2022-12-31T20:28:58.820Z,99995.00
2022-12-31T20:31:27.726Z,99994.75
2022-12-31T20:33:55.100Z,99998.69
2022-12-31T20:36:22.449Z,100005.75
2022-12-31T20:38:50.351Z,100013.88
2022-12-31T20:41:18.678Z,100011.50
2022-12-31T20:43:45.756Z,100010.91
2022-12-31T20:46:15.684Z,100017.81
2022-12-31T20:48:42.436Z,100020.47
2022-12-31T20:51:08.886Z,100026.56
2022-12-31T20:53:35.342Z,100029.47
2022-12-31T20:56:05.601Z,100023.25
2022-12-31T20:58:32.402Z,100023.41
2022-12-31T21:00:59.238Z,100035.84
2022-12-31T21:04:03.010Z,100048.00
2022-12-31T21:06:13.506Z,100048.34
2022-12-31T21:08:40.287Z,100057.63
2022-12-31T21:11:08.878Z,100051.34
2022-12-31T21:13:35.299Z,100051.91
2022-12-31T21:16:01.740Z,100049.13
2022-12-31T21:18:28.150Z,100064.41
2022-12-31T21:20:54.574Z,100055.66
2022-12-31T21:23:20.930Z,100052.28
2022-12-31T21:25:49.183Z,100053.22
2022-12-31T21:28:16.903Z,100048.13
2022-12-31T21:30:43.388Z,100046.69
2022-12-31T21:33:09.766Z,100035.16
2022-12-31T21:35:50.097Z,100046.69
2022-12-31T21:38:19.896Z,100045.09
2022-12-31T21:40:46.409Z,100051.59
2022-12-31T21:43:13.405Z,100055.53
2022-12-31T21:45:42.005Z,100064.28
2022-12-31T21:48:12.091Z,100065.53
2022-12-31T21:50:38.486Z,100069.50
2022-12-31T21:53:04.917Z,100086.50
2022-12-31T21:55:31.321Z,100068.38
2022-12-31T21:58:25.316Z,100092.94
2022-12-31T22:00:45.351Z,100083.63
2022-12-31T22:03:12.808Z,100071.53
2022-12-31T22:05:46.897Z,100083.16
2022-12-31T22:08:13.346Z,100083.22
2022-12-31T22:10:42.826Z,100069.97
2022-12-31T22:13:16.336Z,100072.72
2022-12-31T22:15:42.973Z,100079.97
2022-12-31T22:18:11.126Z,100093.84
2022-12-31T22:20:37.539Z,100077.13
2022-12-31T22:23:04.440Z,100095.91
2022-12-31T22:25:32.653Z,100094.50
2022-12-31T22:28:36.354Z,100103.53
2022-12-31T22:30:47.145Z,100121.53
2022-12-31T22:33:15.023Z,100109.34
2022-12-31T22:35:41.455Z,100107.25
2022-12-31T22:38:11.927Z,100133.25
2022-12-31T22:40:38.812Z,100141.47
2022-12-31T22:43:05.176Z,100131.09
2022-12-31T22:45:31.538Z,100132.16
2022-12-31T22:47:57.919Z,100145.84
2022-12-31T22:50:25.598Z,100136.56
2022-12-31T22:52:51.956Z,100140.91
2022-12-31T22:55:18.353Z,100140.22
2022-12-31T22:57:44.733Z,100144.16
2022-12-31T23:00:13.717Z,100138.72
2022-12-31T23:02:42.260Z,100164.22
2022-12-31T23:05:16.228Z,100159.06
2022-12-31T23:07:44.428Z,100146.06
2022-12-31T23:10:10.840Z,100145.22
2022-12-31T23:12:37.242Z,100156.44
2022-12-31T23:15:04.816Z,100160.97
2022-12-31T23:17:32.200Z,100159.00
2022-12-31T23:19:58.784Z,100164.16
2022-12-31T23:22:25.152Z,100164.88
2022-12-31T23:24:52.859Z,100161.31
2022-12-31T23:27:19.235Z,100174.56
2022-12-31T23:29:47.424Z,100156.81
2022-12-31T23:32:15.158Z,100150.50
2022-12-31T23:34:42.833Z,100163.91
2022-12-31T23:37:09.263Z,100151.81
2022-12-31T23:39:35.645Z,100151.84
2022-12-31T23:42:03.608Z,100159.00
2022-12-31T23:44:29.997Z,100147.56
2022-12-31T23:46:56.466Z,100146.44
2022-12-31T23:49:23.004Z,100149.56
2022-12-31T23:51:49.405Z,100151.09
2022-12-31T23:54:15.765Z,100157.81
2022-12-31T23:56:42.209Z,100151.88
2022-12-31T23:59:11.313Z,100154.28
